sensor_id;sensor_type;location;lat;lon;timestamp;P1;durP1;ratioP1;P2;durP2;ratioP2
7215;SDS011;3649;48.798;9.798;2022-08-19T00:01:53;11.80;;;10.50;;
7215;SDS011;3649;48.798;9.798;2022-08-19T00:04:24;9.20;;;8.43;;
7215;SDS011;3649;48.798;9.798;2022-08-19T00:06:53;12.33;;;10.50;;
7215;SDS011;3649;48.798;9.798;2022-08-19T00:09:21;12.13;;;9.93;;
7215;SDS011;3649;48.798;9.798;2022-08-19T00:11:49;10.80;;;9.90;;
7215;SDS011;3649;48.798;9.798;2022-08-19T00:14:17;11.13;;;10.13;;
7215;SDS011;3649;48.798;9.798;2022-08-19T00:16:47;11.33;;;10.37;;
7215;SDS011;3649;48.798;9.798;2022-08-19T00:19:15;11.30;;;10.30;;
7215;SDS011;3649;48.798;9.798;2022-08-19T00:21:42;12.20;;;10.47;;
7215;SDS011;3649;48.798;9.798;2022-08-19T00:24:10;11.00;;;10.00;;
7215;SDS011;3649;48.798;9.798;2022-08-19T00:26:39;11.93;;;10.73;;
7215;SDS011;3649;48.798;9.798;2022-08-19T00:29:09;10.93;;;10.03;;
7215;SDS011;3649;48.798;9.798;2022-08-19T00:31:38;11.47;;;10.37;;
7215;SDS011;3649;48.798;9.798;2022-08-19T00:34:05;11.63;;;10.50;;
7215;SDS011;3649;48.798;9.798;2022-08-19T00:36:32;11.47;;;10.40;;
7215;SDS011;3649;48.798;9.798;2022-08-19T00:38:59;11.77;;;10.60;;
7215;SDS011;3649;48.798;9.798;2022-08-19T00:41:27;11.73;;;10.80;;
7215;SDS011;3649;48.798;9.798;2022-08-19T00:43:58;11.47;;;10.43;;
7215;SDS011;3649;48.798;9.798;2022-08-19T00:46:25;13.27;;;10.17;;
7215;SDS011;3649;48.798;9.798;2022-08-19T00:48:53;13.80;;;10.90;;
7215;SDS011;3649;48.798;9.798;2022-08-19T00:51:23;11.43;;;10.43;;
7215;SDS011;3649;48.798;9.798;2022-08-19T00:53:54;12.20;;;11.13;;
7215;SDS011;3649;48.798;9.798;2022-08-19T00:56:23;12.77;;;11.37;;
7215;SDS011;3649;48.798;9.798;2022-08-19T00:58:53;16.67;;;10.57;;
7215;SDS011;3649;48.798;9.798;2022-08-19T01:01:22;11.37;;;10.17;;
7215;SDS011;3649;48.798;9.798;2022-08-19T01:03:49;12.37;;;11.17;;
7215;SDS011;3649;48.798;9.798;2022-08-19T01:06:23;11.57;;;10.30;;
7215;SDS011;3649;48.798;9.798;2022-08-19T01:08:52;12.23;;;11.23;;
7215;SDS011;3649;48.798;9.798;2022-08-19T01:11:21;12.43;;;11.17;;
7215;SDS011;3649;48.798;9.798;2022-08-19T01:13:47;11.97;;;10.83;;
7215;SDS011;3649;48.798;9.798;2022-08-19T01:16:17;12.13;;;11.03;;
7215;SDS011;3649;48.798;9.798;2022-08-19T01:18:46;12.53;;;11.10;;
7215;SDS011;3649;48.798;9.798;2022-08-19T01:21:34;12.03;;;11.03;;
7215;SDS011;3649;48.798;9.798;2022-08-19T01:24:00;12.53;;;11.37;;
7215;SDS011;3649;48.798;9.798;2022-08-19T01:26:27;14.07;;;10.47;;
7215;SDS011;3649;48.798;9.798;2022-08-19T01:28:57;12.13;;;11.13;;
7215;SDS011;3649;48.798;9.798;2022-08-19T01:31:28;11.87;;;10.77;;
7215;SDS011;3649;48.798;9.798;2022-08-19T01:33:58;13.73;;;12.30;;
7215;SDS011;3649;48.798;9.798;2022-08-19T01:36:33;12.67;;;11.67;;
7215;SDS011;3649;48.798;9.798;2022-08-19T01:39:19;14.03;;;12.73;;
7215;SDS011;3649;48.798;9.798;2022-08-19T01:41:49;13.47;;;12.27;;
7215;SDS011;3649;48.798;9.798;2022-08-19T01:44:16;13.53;;;12.33;;
7215;SDS011;3649;48.798;9.798;2022-08-19T01:46:47;14.30;;;13.00;;
7215;SDS011;3649;48.798;9.798;2022-08-19T01:49:15;12.83;;;11.73;;
7215;SDS011;3649;48.798;9.798;2022-08-19T01:51:44;12.03;;;11.03;;
7215;SDS011;3649;48.798;9.798;2022-08-19T01:54:12;11.97;;;10.87;;
7215;SDS011;3649;48.798;9.798;2022-08-19T01:56:52;11.90;;;10.73;;
7215;SDS011;3649;48.798;9.798;2022-08-19T01:59:33;12.00;;;10.77;;
7215;SDS011;3649;48.798;9.798;2022-08-19T02:02:03;11.80;;;10.80;;
7215;SDS011;3649;48.798;9.798;2022-08-19T02:04:35;14.30;;;12.90;;
7215;SDS011;3649;48.798;9.798;2022-08-19T02:07:04;13.23;;;12.13;;
7215;SDS011;3649;48.798;9.798;2022-08-19T02:09:32;15.50;;;13.97;;
7215;SDS011;3649;48.798;9.798;2022-08-19T02:11:58;14.97;;;12.80;;
7215;SDS011;3649;48.798;9.798;2022-08-19T02:14:26;14.40;;;13.03;;
7215;SDS011;3649;48.798;9.798;2022-08-19T02:16:53;14.17;;;12.97;;
7215;SDS011;3649;48.798;9.798;2022-08-19T02:19:19;13.27;;;12.13;;
7215;SDS011;3649;48.798;9.798;2022-08-19T02:21:46;14.10;;;12.80;;
7215;SDS011;3649;48.798;9.798;2022-08-19T02:24:13;12.90;;;11.73;;
7215;SDS011;3649;48.798;9.798;2022-08-19T02:26:40;13.47;;;12.27;;
7215;SDS011;3649;48.798;9.798;2022-08-19T02:29:07;13.53;;;12.13;;
7215;SDS011;3649;48.798;9.798;2022-08-19T02:31:34;12.40;;;11.13;;
7215;SDS011;3649;48.798;9.798;2022-08-19T02:34:01;13.80;;;12.53;;
7215;SDS011;3649;48.798;9.798;2022-08-19T02:36:29;12.83;;;11.73;;
7215;SDS011;3649;48.798;9.798;2022-08-19T02:38:56;12.50;;;11.40;;
7215;SDS011;3649;48.798;9.798;2022-08-19T02:41:28;13.03;;;11.93;;
7215;SDS011;3649;48.798;9.798;2022-08-19T02:43:58;13.23;;;12.13;;
7215;SDS011;3649;48.798;9.798;2022-08-19T02:46:48;12.83;;;11.70;;
7215;SDS011;3649;48.798;9.798;2022-08-19T02:49:18;14.33;;;12.97;;
7215;SDS011;3649;48.798;9.798;2022-08-19T02:51:46;13.60;;;12.20;;
7215;SDS011;3649;48.798;9.798;2022-08-19T02:54:13;12.50;;;11.33;;
7215;SDS011;3649;48.798;9.798;2022-08-19T02:56:41;13.37;;;12.17;;
7215;SDS011;3649;48.798;9.798;2022-08-19T02:59:09;14.77;;;13.17;;
7215;SDS011;3649;48.798;9.798;2022-08-19T03:01:39;14.10;;;12.80;;
7215;SDS011;3649;48.798;9.798;2022-08-19T03:04:07;12.93;;;11.87;;
7215;SDS011;3649;48.798;9.798;2022-08-19T03:06:37;13.57;;;12.30;;
7215;SDS011;3649;48.798;9.798;2022-08-19T03:09:05;14.70;;;12.93;;
7215;SDS011;3649;48.798;9.798;2022-08-19T03:11:32;12.73;;;11.63;;
7215;SDS011;3649;48.798;9.798;2022-08-19T03:14:00;13.67;;;12.37;;
7215;SDS011;3649;48.798;9.798;2022-08-19T03:16:28;13.27;;;12.07;;
7215;SDS011;3649;48.798;9.798;2022-08-19T03:18:59;14.10;;;12.80;;
7215;SDS011;3649;48.798;9.798;2022-08-19T03:21:28;13.77;;;12.53;;
7215;SDS011;3649;48.798;9.798;2022-08-19T03:23:58;13.93;;;12.63;;
7215;SDS011;3649;48.798;9.798;2022-08-19T03:26:28;15.00;;;13.63;;
7215;SDS011;3649;48.798;9.798;2022-08-19T03:28:55;14.20;;;12.90;;
7215;SDS011;3649;48.798;9.798;2022-08-19T03:31:24;16.30;;;14.90;;
7215;SDS011;3649;48.798;9.798;2022-08-19T03:34:16;14.73;;;13.00;;
7215;SDS011;3649;48.798;9.798;2022-08-19T03:36:45;14.60;;;13.20;;
7215;SDS011;3649;48.798;9.798;2022-08-19T03:39:14;14.13;;;12.93;;
7215;SDS011;3649;48.798;9.798;2022-08-19T03:41:42;15.43;;;14.00;;
7215;SDS011;3649;48.798;9.798;2022-08-19T03:44:13;15.87;;;14.27;;
7215;SDS011;3649;48.798;9.798;2022-08-19T03:46:44;15.07;;;13.77;;
7215;SDS011;3649;48.798;9.798;2022-08-19T03:49:16;13.77;;;12.57;;
7215;SDS011;3649;48.798;9.798;2022-08-19T03:51:45;15.80;;;14.37;;
7215;SDS011;3649;48.798;9.798;2022-08-19T03:54:14;15.70;;;14.20;;
7215;SDS011;3649;48.798;9.798;2022-08-19T03:56:42;15.83;;;14.23;;
7215;SDS011;3649;48.798;9.798;2022-08-19T03:59:11;14.37;;;13.17;;
7215;SDS011;3649;48.798;9.798;2022-08-19T04:01:40;14.80;;;13.40;;
7215;SDS011;3649;48.798;9.798;2022-08-19T04:04:07;15.10;;;13.63;;
7215;SDS011;3649;48.798;9.798;2022-08-19T04:06:35;14.93;;;13.53;;
7215;SDS011;3649;48.798;9.798;2022-08-19T04:09:06;14.40;;;12.97;;
7215;SDS011;3649;48.798;9.798;2022-08-19T04:11:36;14.73;;;13.43;;
7215;SDS011;3649;48.798;9.798;2022-08-19T04:14:10;14.87;;;13.40;;
7215;SDS011;3649;48.798;9.798;2022-08-19T04:16:38;15.40;;;13.83;;
7215;SDS011;3649;48.798;9.798;2022-08-19T04:19:05;15.60;;;14.10;;
7215;SDS011;3649;48.798;9.798;2022-08-19T04:21:33;15.67;;;14.17;;
7215;SDS011;3649;48.798;9.798;2022-08-19T04:24:00;15.67;;;14.23;;
7215;SDS011;3649;48.798;9.798;2022-08-19T04:26:31;16.00;;;14.57;;
7215;SDS011;3649;48.798;9.798;2022-08-19T04:29:03;16.67;;;15.17;;
7215;SDS011;3649;48.798;9.798;2022-08-19T04:31:37;17.17;;;15.47;;
7215;SDS011;3649;48.798;9.798;2022-08-19T04:34:05;16.47;;;14.87;;
7215;SDS011;3649;48.798;9.798;2022-08-19T04:36:34;16.90;;;14.93;;
7215;SDS011;3649;48.798;9.798;2022-08-19T04:39:04;17.37;;;15.77;;
7215;SDS011;3649;48.798;9.798;2022-08-19T04:41:33;17.73;;;16.13;;
7215;SDS011;3649;48.798;9.798;2022-08-19T04:44:19;17.27;;;15.57;;
7215;SDS011;3649;48.798;9.798;2022-08-19T04:46:49;17.10;;;15.40;;
7215;SDS011;3649;48.798;9.798;2022-08-19T04:49:20;18.23;;;16.43;;
7215;SDS011;3649;48.798;9.798;2022-08-19T04:51:49;17.77;;;16.07;;
7215;SDS011;3649;48.798;9.798;2022-08-19T04:54:21;18.03;;;16.33;;
7215;SDS011;3649;48.798;9.798;2022-08-19T04:57:04;18.60;;;16.90;;
7215;SDS011;3649;48.798;9.798;2022-08-19T04:59:33;18.37;;;16.57;;
7215;SDS011;3649;48.798;9.798;2022-08-19T05:02:00;18.87;;;16.97;;
7215;SDS011;3649;48.798;9.798;2022-08-19T05:04:27;18.23;;;16.30;;
7215;SDS011;3649;48.798;9.798;2022-08-19T05:06:58;19.10;;;17.20;;
7215;SDS011;3649;48.798;9.798;2022-08-19T05:09:28;17.20;;;15.60;;
7215;SDS011;3649;48.798;9.798;2022-08-19T05:12:16;17.77;;;16.13;;
7215;SDS011;3649;48.798;9.798;2022-08-19T05:14:43;16.67;;;14.97;;
7215;SDS011;3649;48.798;9.798;2022-08-19T05:17:13;20.83;;;16.87;;
7215;SDS011;3649;48.798;9.798;2022-08-19T05:20:00;17.80;;;15.83;;
7215;SDS011;3649;48.798;9.798;2022-08-19T05:22:46;18.43;;;16.50;;
7215;SDS011;3649;48.798;9.798;2022-08-19T05:25:17;16.13;;;14.63;;
7215;SDS011;3649;48.798;9.798;2022-08-19T05:27:45;17.03;;;15.50;;
7215;SDS011;3649;48.798;9.798;2022-08-19T05:30:13;17.30;;;15.70;;
7215;SDS011;3649;48.798;9.798;2022-08-19T05:32:40;16.60;;;15.07;;
7215;SDS011;3649;48.798;9.798;2022-08-19T05:35:07;16.93;;;15.30;;
7215;SDS011;3649;48.798;9.798;2022-08-19T05:37:35;18.37;;;16.13;;
7215;SDS011;3649;48.798;9.798;2022-08-19T05:40:03;17.57;;;15.73;;
7215;SDS011;3649;48.798;9.798;2022-08-19T05:42:30;17.57;;;15.57;;
7215;SDS011;3649;48.798;9.798;2022-08-19T05:44:57;18.43;;;16.40;;
7215;SDS011;3649;48.798;9.798;2022-08-19T05:47:24;16.30;;;14.83;;
7215;SDS011;3649;48.798;9.798;2022-08-19T05:49:51;17.73;;;16.03;;
7215;SDS011;3649;48.798;9.798;2022-08-19T05:52:18;17.90;;;16.10;;
7215;SDS011;3649;48.798;9.798;2022-08-19T05:54:51;16.83;;;15.30;;
7215;SDS011;3649;48.798;9.798;2022-08-19T05:57:21;17.63;;;15.97;;
7215;SDS011;3649;48.798;9.798;2022-08-19T05:59:49;15.53;;;14.03;;
7215;SDS011;3649;48.798;9.798;2022-08-19T06:02:23;16.27;;;14.70;;
7215;SDS011;3649;48.798;9.798;2022-08-19T06:04:53;16.70;;;15.00;;
7215;SDS011;3649;48.798;9.798;2022-08-19T06:07:20;16.37;;;14.77;;
7215;SDS011;3649;48.798;9.798;2022-08-19T06:09:48;15.93;;;14.53;;
7215;SDS011;3649;48.798;9.798;2022-08-19T06:12:26;15.90;;;14.47;;
7215;SDS011;3649;48.798;9.798;2022-08-19T06:14:55;16.63;;;14.93;;
7215;SDS011;3649;48.798;9.798;2022-08-19T06:17:27;16.83;;;15.03;;
7215;SDS011;3649;48.798;9.798;2022-08-19T06:19:57;18.83;;;16.83;;
7215;SDS011;3649;48.798;9.798;2022-08-19T06:22:24;16.47;;;14.83;;
7215;SDS011;3649;48.798;9.798;2022-08-19T06:24:52;16.93;;;15.17;;
7215;SDS011;3649;48.798;9.798;2022-08-19T06:27:20;17.70;;;16.00;;
7215;SDS011;3649;48.798;9.798;2022-08-19T06:29:47;16.87;;;15.13;;
7215;SDS011;3649;48.798;9.798;2022-08-19T06:32:15;16.57;;;14.97;;
7215;SDS011;3649;48.798;9.798;2022-08-19T06:34:45;18.03;;;16.23;;
7215;SDS011;3649;48.798;9.798;2022-08-19T06:37:14;17.07;;;15.30;;
7215;SDS011;3649;48.798;9.798;2022-08-19T06:39:42;17.03;;;15.33;;
7215;SDS011;3649;48.798;9.798;2022-08-19T06:42:11;16.90;;;15.17;;
7215;SDS011;3649;48.798;9.798;2022-08-19T06:44:40;17.37;;;15.57;;
7215;SDS011;3649;48.798;9.798;2022-08-19T06:47:19;17.33;;;15.17;;
7215;SDS011;3649;48.798;9.798;2022-08-19T06:49:55;16.00;;;13.93;;
7215;SDS011;3649;48.798;9.798;2022-08-19T06:52:31;17.77;;;15.97;;
7215;SDS011;3649;48.798;9.798;2022-08-19T06:55:03;17.07;;;15.27;;
7215;SDS011;3649;48.798;9.798;2022-08-19T06:57:32;20.67;;;17.33;;
7215;SDS011;3649;48.798;9.798;2022-08-19T07:00:00;18.40;;;16.43;;
7215;SDS011;3649;48.798;9.798;2022-08-19T07:02:29;20.67;;;17.40;;
7215;SDS011;3649;48.798;9.798;2022-08-19T07:04:57;18.33;;;16.40;;
7215;SDS011;3649;48.798;9.798;2022-08-19T07:07:24;17.33;;;15.63;;
7215;SDS011;3649;48.798;9.798;2022-08-19T07:09:52;19.87;;;17.00;;
7215;SDS011;3649;48.798;9.798;2022-08-19T07:12:28;18.30;;;16.03;;
7215;SDS011;3649;48.798;9.798;2022-08-19T07:15:02;17.93;;;16.07;;
7215;SDS011;3649;48.798;9.798;2022-08-19T07:17:31;17.13;;;15.33;;
7215;SDS011;3649;48.798;9.798;2022-08-19T07:19:59;22.67;;;17.23;;
7215;SDS011;3649;48.798;9.798;2022-08-19T07:22:32;18.87;;;17.07;;
7215;SDS011;3649;48.798;9.798;2022-08-19T07:25:01;21.10;;;16.13;;
7215;SDS011;3649;48.798;9.798;2022-08-19T07:27:30;18.97;;;17.07;;
7215;SDS011;3649;48.798;9.798;2022-08-19T07:30:02;18.57;;;16.37;;
7215;SDS011;3649;48.798;9.798;2022-08-19T07:32:37;19.73;;;16.90;;
7215;SDS011;3649;48.798;9.798;2022-08-19T07:35:05;20.50;;;17.23;;
7215;SDS011;3649;48.798;9.798;2022-08-19T07:37:33;18.57;;;16.67;;
7215;SDS011;3649;48.798;9.798;2022-08-19T07:40:03;20.53;;;17.93;;
7215;SDS011;3649;48.798;9.798;2022-08-19T07:42:32;19.97;;;16.70;;
7215;SDS011;3649;48.798;9.798;2022-08-19T07:44:59;20.13;;;18.07;;
7215;SDS011;3649;48.798;9.798;2022-08-19T07:47:26;18.53;;;16.70;;
7215;SDS011;3649;48.798;9.798;2022-08-19T07:50:14;23.83;;;18.53;;
7215;SDS011;3649;48.798;9.798;2022-08-19T07:52:42;20.73;;;18.53;;
7215;SDS011;3649;48.798;9.798;2022-08-19T07:55:15;20.63;;;18.47;;
7215;SDS011;3649;48.798;9.798;2022-08-19T07:58:04;20.60;;;18.30;;
7215;SDS011;3649;48.798;9.798;2022-08-19T08:00:31;24.13;;;19.40;;
7215;SDS011;3649;48.798;9.798;2022-08-19T08:02:58;19.67;;;17.63;;
7215;SDS011;3649;48.798;9.798;2022-08-19T08:05:25;22.40;;;19.50;;
7215;SDS011;3649;48.798;9.798;2022-08-19T08:08:11;19.03;;;17.03;;
7215;SDS011;3649;48.798;9.798;2022-08-19T08:10:57;22.67;;;18.27;;
7215;SDS011;3649;48.798;9.798;2022-08-19T08:13:25;23.13;;;20.10;;
7215;SDS011;3649;48.798;9.798;2022-08-19T08:15:54;23.13;;;19.97;;
7215;SDS011;3649;48.798;9.798;2022-08-19T08:18:22;21.03;;;18.83;;
7215;SDS011;3649;48.798;9.798;2022-08-19T08:20:53;22.23;;;18.00;;
7215;SDS011;3649;48.798;9.798;2022-08-19T08:23:22;19.83;;;17.53;;
7215;SDS011;3649;48.798;9.798;2022-08-19T08:25:51;22.40;;;20.00;;
7215;SDS011;3649;48.798;9.798;2022-08-19T08:28:20;21.57;;;18.13;;
7215;SDS011;3649;48.798;9.798;2022-08-19T08:30:48;21.93;;;19.70;;
7215;SDS011;3649;48.798;9.798;2022-08-19T08:33:20;22.63;;;19.17;;
7215;SDS011;3649;48.798;9.798;2022-08-19T08:36:09;23.20;;;19.63;;
7215;SDS011;3649;48.798;9.798;2022-08-19T08:38:37;28.87;;;21.27;;
7215;SDS011;3649;48.798;9.798;2022-08-19T08:43:54;25.37;;;21.47;;
7215;SDS011;3649;48.798;9.798;2022-08-19T08:46:38;27.40;;;21.27;;
7215;SDS011;3649;48.798;9.798;2022-08-19T08:51:48;27.07;;;20.73;;
7215;SDS011;3649;48.798;9.798;2022-08-19T08:54:27;21.60;;;19.37;;
7215;SDS011;3649;48.798;9.798;2022-08-19T08:57:02;22.87;;;20.53;;
7215;SDS011;3649;48.798;9.798;2022-08-19T08:59:31;22.37;;;19.37;;
7215;SDS011;3649;48.798;9.798;2022-08-19T09:02:03;22.97;;;20.57;;
7215;SDS011;3649;48.798;9.798;2022-08-19T09:04:30;22.97;;;20.60;;
7215;SDS011;3649;48.798;9.798;2022-08-19T09:07:03;24.13;;;21.40;;
7215;SDS011;3649;48.798;9.798;2022-08-19T09:10:18;23.77;;;21.23;;
7215;SDS011;3649;48.798;9.798;2022-08-19T09:15:31;25.33;;;21.50;;
7215;SDS011;3649;48.798;9.798;2022-08-19T09:18:08;28.27;;;22.23;;
7215;SDS011;3649;48.798;9.798;2022-08-19T09:20:44;25.27;;;20.83;;
7215;SDS011;3649;48.798;9.798;2022-08-19T09:23:13;24.37;;;21.33;;
7215;SDS011;3649;48.798;9.798;2022-08-19T09:25:41;24.63;;;21.97;;
7215;SDS011;3649;48.798;9.798;2022-08-19T09:28:08;26.13;;;22.07;;
7215;SDS011;3649;48.798;9.798;2022-08-19T09:30:47;27.47;;;21.83;;
7215;SDS011;3649;48.798;9.798;2022-08-19T09:33:18;24.07;;;21.50;;
7215;SDS011;3649;48.798;9.798;2022-08-19T09:35:46;26.23;;;22.80;;
7215;SDS011;3649;48.798;9.798;2022-08-19T09:38:18;28.53;;;21.83;;
7215;SDS011;3649;48.798;9.798;2022-08-19T09:40:46;27.10;;;23.23;;
7215;SDS011;3649;48.798;9.798;2022-08-19T09:43:13;28.93;;;23.60;;
7215;SDS011;3649;48.798;9.798;2022-08-19T09:45:58;27.23;;;24.27;;
7215;SDS011;3649;48.798;9.798;2022-08-19T09:48:26;28.17;;;23.53;;
7215;SDS011;3649;48.798;9.798;2022-08-19T09:50:53;25.03;;;21.90;;
7215;SDS011;3649;48.798;9.798;2022-08-19T09:53:20;25.70;;;22.73;;
7215;SDS011;3649;48.798;9.798;2022-08-19T09:55:50;24.00;;;21.60;;
7215;SDS011;3649;48.798;9.798;2022-08-19T09:58:18;25.03;;;22.40;;
7215;SDS011;3649;48.798;9.798;2022-08-19T10:00:51;25.73;;;22.83;;
7215;SDS011;3649;48.798;9.798;2022-08-19T10:03:18;28.77;;;23.03;;
7215;SDS011;3649;48.798;9.798;2022-08-19T10:05:45;25.20;;;21.27;;
7215;SDS011;3649;48.798;9.798;2022-08-19T10:08:22;25.93;;;21.77;;
7215;SDS011;3649;48.798;9.798;2022-08-19T10:10:55;23.73;;;21.20;;
7215;SDS011;3649;48.798;9.798;2022-08-19T10:13:25;26.93;;;22.90;;
7215;SDS011;3649;48.798;9.798;2022-08-19T10:15:54;23.10;;;20.47;;
7215;SDS011;3649;48.798;9.798;2022-08-19T10:18:25;24.13;;;21.53;;
7215;SDS011;3649;48.798;9.798;2022-08-19T10:21:01;24.80;;;20.90;;
7215;SDS011;3649;48.798;9.798;2022-08-19T10:23:41;23.53;;;21.03;;
7215;SDS011;3649;48.798;9.798;2022-08-19T10:26:13;25.97;;;22.97;;
7215;SDS011;3649;48.798;9.798;2022-08-19T10:28:44;24.80;;;21.33;;
7215;SDS011;3649;48.798;9.798;2022-08-19T10:31:14;23.77;;;21.27;;
7215;SDS011;3649;48.798;9.798;2022-08-19T10:34:06;25.00;;;21.30;;
7215;SDS011;3649;48.798;9.798;2022-08-19T10:36:37;23.70;;;20.77;;
7215;SDS011;3649;48.798;9.798;2022-08-19T10:39:21;22.73;;;20.33;;
7215;SDS011;3649;48.798;9.798;2022-08-19T10:41:48;23.97;;;21.57;;
7215;SDS011;3649;48.798;9.798;2022-08-19T10:44:15;24.27;;;21.50;;
7215;SDS011;3649;48.798;9.798;2022-08-19T10:46:44;24.40;;;19.90;;
7215;SDS011;3649;48.798;9.798;2022-08-19T10:49:15;22.40;;;19.77;;
7215;SDS011;3649;48.798;9.798;2022-08-19T10:51:42;24.57;;;21.20;;
7215;SDS011;3649;48.798;9.798;2022-08-19T10:54:28;22.73;;;20.33;;
7215;SDS011;3649;48.798;9.798;2022-08-19T10:57:15;23.17;;;19.83;;
7215;SDS011;3649;48.798;9.798;2022-08-19T10:59:42;22.23;;;19.97;;
7215;SDS011;3649;48.798;9.798;2022-08-19T11:02:10;23.03;;;20.63;;
7215;SDS011;3649;48.798;9.798;2022-08-19T11:04:38;20.93;;;18.70;;
7215;SDS011;3649;48.798;9.798;2022-08-19T11:07:06;23.57;;;19.67;;
7215;SDS011;3649;48.798;9.798;2022-08-19T11:09:38;22.53;;;19.10;;
7215;SDS011;3649;48.798;9.798;2022-08-19T11:12:07;23.10;;;19.57;;
7215;SDS011;3649;48.798;9.798;2022-08-19T11:14:38;20.90;;;18.60;;
7215;SDS011;3649;48.798;9.798;2022-08-19T11:17:05;22.70;;;19.17;;
7215;SDS011;3649;48.798;9.798;2022-08-19T11:19:32;21.23;;;18.97;;
7215;SDS011;3649;48.798;9.798;2022-08-19T11:22:00;23.37;;;18.20;;
7215;SDS011;3649;48.798;9.798;2022-08-19T11:24:30;22.73;;;19.50;;
7215;SDS011;3649;48.798;9.798;2022-08-19T11:27:06;21.50;;;19.30;;
7215;SDS011;3649;48.798;9.798;2022-08-19T11:29:36;24.97;;;20.37;;
7215;SDS011;3649;48.798;9.798;2022-08-19T11:32:05;21.23;;;18.67;;
7215;SDS011;3649;48.798;9.798;2022-08-19T11:34:35;26.67;;;21.37;;
7215;SDS011;3649;48.798;9.798;2022-08-19T11:37:03;29.50;;;21.20;;
7215;SDS011;3649;48.798;9.798;2022-08-19T11:39:30;24.33;;;20.77;;
7215;SDS011;3649;48.798;9.798;2022-08-19T11:41:59;25.27;;;22.27;;
7215;SDS011;3649;48.798;9.798;2022-08-19T11:44:28;28.50;;;21.27;;
7215;SDS011;3649;48.798;9.798;2022-08-19T11:46:56;26.13;;;22.20;;
7215;SDS011;3649;48.798;9.798;2022-08-19T11:49:34;28.30;;;23.07;;
7215;SDS011;3649;48.798;9.798;2022-08-19T11:52:02;24.57;;;21.57;;
7215;SDS011;3649;48.798;9.798;2022-08-19T11:54:29;27.20;;;22.97;;
7215;SDS011;3649;48.798;9.798;2022-08-19T11:56:57;26.40;;;23.67;;
7215;SDS011;3649;48.798;9.798;2022-08-19T11:59:23;39.50;;;25.10;;
7215;SDS011;3649;48.798;9.798;2022-08-19T12:01:52;29.23;;;23.87;;
7215;SDS011;3649;48.798;9.798;2022-08-19T12:04:19;27.20;;;23.90;;
7215;SDS011;3649;48.798;9.798;2022-08-19T12:06:46;28.90;;;25.23;;
7215;SDS011;3649;48.798;9.798;2022-08-19T12:09:13;31.27;;;26.07;;
7215;SDS011;3649;48.798;9.798;2022-08-19T12:11:41;34.00;;;26.93;;
7215;SDS011;3649;48.798;9.798;2022-08-19T12:14:09;30.73;;;24.80;;
7215;SDS011;3649;48.798;9.798;2022-08-19T12:16:40;27.97;;;24.63;;
7215;SDS011;3649;48.798;9.798;2022-08-19T12:19:14;29.50;;;24.37;;
7215;SDS011;3649;48.798;9.798;2022-08-19T12:21:48;34.83;;;26.40;;
7215;SDS011;3649;48.798;9.798;2022-08-19T12:24:15;44.57;;;29.27;;
7215;SDS011;3649;48.798;9.798;2022-08-19T12:26:46;33.43;;;27.17;;
7215;SDS011;3649;48.798;9.798;2022-08-19T12:29:19;35.00;;;28.60;;
7215;SDS011;3649;48.798;9.798;2022-08-19T12:31:49;35.53;;;28.30;;
7215;SDS011;3649;48.798;9.798;2022-08-19T12:34:16;34.93;;;28.00;;
7215;SDS011;3649;48.798;9.798;2022-08-19T12:36:43;33.20;;;26.90;;
7215;SDS011;3649;48.798;9.798;2022-08-19T12:39:10;33.97;;;27.53;;
7215;SDS011;3649;48.798;9.798;2022-08-19T12:41:38;36.33;;;29.20;;
7215;SDS011;3649;48.798;9.798;2022-08-19T12:44:20;35.50;;;29.37;;
7215;SDS011;3649;48.798;9.798;2022-08-19T12:46:57;32.87;;;28.80;;
7215;SDS011;3649;48.798;9.798;2022-08-19T12:49:27;37.07;;;28.93;;
7215;SDS011;3649;48.798;9.798;2022-08-19T12:52:15;36.13;;;27.43;;
7215;SDS011;3649;48.798;9.798;2022-08-19T12:54:48;36.43;;;28.77;;
7215;SDS011;3649;48.798;9.798;2022-08-19T12:57:20;32.53;;;25.70;;
7215;SDS011;3649;48.798;9.798;2022-08-19T12:59:57;32.30;;;27.03;;
7215;SDS011;3649;48.798;9.798;2022-08-19T13:02:25;36.07;;;28.00;;
7215;SDS011;3649;48.798;9.798;2022-08-19T13:04:52;33.03;;;27.83;;
7215;SDS011;3649;48.798;9.798;2022-08-19T13:07:20;33.37;;;26.97;;
7215;SDS011;3649;48.798;9.798;2022-08-19T13:09:47;40.97;;;28.97;;
7215;SDS011;3649;48.798;9.798;2022-08-19T13:12:18;35.00;;;26.87;;
7215;SDS011;3649;48.798;9.798;2022-08-19T13:14:52;39.23;;;27.67;;
7215;SDS011;3649;48.798;9.798;2022-08-19T13:17:20;34.07;;;25.90;;
7215;SDS011;3649;48.798;9.798;2022-08-19T13:19:48;30.43;;;25.57;;
7215;SDS011;3649;48.798;9.798;2022-08-19T13:22:15;31.97;;;26.70;;
7215;SDS011;3649;48.798;9.798;2022-08-19T13:24:42;32.20;;;26.80;;
7215;SDS011;3649;48.798;9.798;2022-08-19T13:27:12;28.83;;;24.57;;
7215;SDS011;3649;48.798;9.798;2022-08-19T13:29:40;30.10;;;24.70;;
7215;SDS011;3649;48.798;9.798;2022-08-19T13:32:28;30.40;;;24.20;;
7215;SDS011;3649;48.798;9.798;2022-08-19T13:35:15;30.33;;;24.27;;
7215;SDS011;3649;48.798;9.798;2022-08-19T13:37:43;26.67;;;23.37;;
7215;SDS011;3649;48.798;9.798;2022-08-19T13:40:12;24.73;;;22.07;;
7215;SDS011;3649;48.798;9.798;2022-08-19T13:42:51;23.73;;;21.00;;
7215;SDS011;3649;48.798;9.798;2022-08-19T13:45:21;28.47;;;22.73;;
7215;SDS011;3649;48.798;9.798;2022-08-19T13:47:51;24.53;;;21.80;;
7215;SDS011;3649;48.798;9.798;2022-08-19T13:50:27;27.60;;;23.50;;
7215;SDS011;3649;48.798;9.798;2022-08-19T13:52:55;25.30;;;22.70;;
7215;SDS011;3649;48.798;9.798;2022-08-19T13:55:23;26.27;;;23.03;;
7215;SDS011;3649;48.798;9.798;2022-08-19T13:57:51;26.60;;;23.77;;
7215;SDS011;3649;48.798;9.798;2022-08-19T14:00:20;27.23;;;22.63;;
7215;SDS011;3649;48.798;9.798;2022-08-19T14:02:53;26.80;;;23.73;;
7215;SDS011;3649;48.798;9.798;2022-08-19T14:05:22;27.17;;;24.23;;
7215;SDS011;3649;48.798;9.798;2022-08-19T14:07:50;26.67;;;22.83;;
7215;SDS011;3649;48.798;9.798;2022-08-19T14:10:17;24.83;;;21.80;;
7215;SDS011;3649;48.798;9.798;2022-08-19T14:12:45;26.97;;;23.87;;
7215;SDS011;3649;48.798;9.798;2022-08-19T14:15:12;23.60;;;21.10;;
7215;SDS011;3649;48.798;9.798;2022-08-19T14:17:41;21.77;;;19.60;;
7215;SDS011;3649;48.798;9.798;2022-08-19T14:20:10;23.33;;;20.27;;
7215;SDS011;3649;48.798;9.798;2022-08-19T14:22:44;24.37;;;19.90;;
7215;SDS011;3649;48.798;9.798;2022-08-19T14:25:13;22.73;;;20.33;;
7215;SDS011;3649;48.798;9.798;2022-08-19T14:27:43;21.80;;;19.50;;
7215;SDS011;3649;48.798;9.798;2022-08-19T14:30:11;21.17;;;18.97;;
7215;SDS011;3649;48.798;9.798;2022-08-19T14:32:40;20.83;;;18.77;;
7215;SDS011;3649;48.798;9.798;2022-08-19T14:35:09;19.23;;;17.43;;
7215;SDS011;3649;48.798;9.798;2022-08-19T14:37:38;19.17;;;17.17;;
7215;SDS011;3649;48.798;9.798;2022-08-19T14:40:12;17.93;;;16.07;;
7215;SDS011;3649;48.798;9.798;2022-08-19T14:42:41;17.47;;;15.77;;
7215;SDS011;3649;48.798;9.798;2022-08-19T14:45:09;18.80;;;16.90;;
7215;SDS011;3649;48.798;9.798;2022-08-19T14:47:37;17.57;;;15.47;;
7215;SDS011;3649;48.798;9.798;2022-08-19T14:50:08;15.57;;;14.03;;
7215;SDS011;3649;48.798;9.798;2022-08-19T14:52:47;15.17;;;13.80;;
7215;SDS011;3649;48.798;9.798;2022-08-19T14:55:15;14.60;;;13.20;;
7215;SDS011;3649;48.798;9.798;2022-08-19T14:57:43;15.57;;;14.17;;
7215;SDS011;3649;48.798;9.798;2022-08-19T15:00:11;13.53;;;12.30;;
7215;SDS011;3649;48.798;9.798;2022-08-19T15:02:41;13.67;;;12.00;;
7215;SDS011;3649;48.798;9.798;2022-08-19T15:05:10;13.17;;;11.97;;
7215;SDS011;3649;48.798;9.798;2022-08-19T15:07:39;12.40;;;11.30;;
7215;SDS011;3649;48.798;9.798;2022-08-19T15:10:07;14.23;;;12.60;;
7215;SDS011;3649;48.798;9.798;2022-08-19T15:12:36;12.87;;;11.67;;
7215;SDS011;3649;48.798;9.798;2022-08-19T15:15:07;13.40;;;11.20;;
7215;SDS011;3649;48.798;9.798;2022-08-19T15:17:39;12.43;;;11.30;;